Time;durP1;ratioP1;P1;durP2;ratioP2;P2;SDS_P1;SDS_P2;PMS_P1;PMS_P2;Temp;Humidity;BMP_temperature;BMP_pressure;BME280_temperature;BME280_humidity;BME280_pressure;Samples;Min_cycle;Max_cycle;Signal;HPM_P1;HPM_P2
2022/04/04 00:02:44;;;;;;;25.77;8.35;;;;;;;0.48;64.26;98851.02;2282179;77;21056;-60
2022/04/04 00:05:47;;;;;;;27.67;8.53;;;;;;;0.40;64.70;98849.86;2241855;78;21070;-60
2022/04/04 00:08:49;;;;;;;22.00;6.78;;;;;;;0.54;64.33;98850.88;2236677;78;21014;-60
2022/04/04 00:11:51;;;;;;;25.75;8.03;;;;;;;0.42;64.77;98849.86;2236510;79;20988;-60
2022/04/04 00:14:53;;;;;;;24.80;6.30;;;;;;;0.48;64.64;98850.56;2241739;79;20996;-60
2022/04/04 00:17:55;;;;;;;27.27;7.90;;;;;;;0.50;64.94;98847.53;2240426;79;21012;-60
2022/04/04 00:20:57;;;;;;;25.45;7.28;;;;;;;0.46;65.30;98851.47;2238570;79;21028;-60
2022/04/04 00:23:58;;;;;;;26.80;7.30;;;;;;;0.49;65.08;98849.69;2244536;79;20985;-60
2022/04/04 00:27:01;;;;;;;24.35;7.30;;;;;;;0.49;65.41;98848.41;2237015;79;21470;-60
2022/04/04 00:30:03;;;;;;;25.10;7.78;;;;;;;0.48;65.65;98849.27;2237849;79;21001;-60
2022/04/04 00:33:04;;;;;;;24.82;7.70;;;;;;;0.41;66.02;98840.41;2247487;79;21013;-60
2022/04/04 00:36:06;;;;;;;25.40;7.83;;;;;;;0.50;65.26;98838.50;2239475;79;21080;-60
2022/04/04 00:39:08;;;;;;;26.97;8.03;;;;;;;0.47;65.65;98840.27;2243462;79;21000;-60
2022/04/04 00:42:09;;;;;;;26.77;7.83;;;;;;;0.45;65.86;98837.73;2239767;79;21040;-60
2022/04/04 00:45:11;;;;;;;28.05;7.87;;;;;;;0.42;65.98;98835.21;2238512;79;20985;-60
2022/04/04 00:48:12;;;;;;;25.95;8.08;;;;;;;0.34;66.23;98831.92;2241134;78;21023;-59
2022/04/04 00:51:13;;;;;;;26.50;8.25;;;;;;;0.05;66.97;98835.06;2242872;78;21485;-60
2022/04/04 00:54:15;;;;;;;24.45;7.70;;;;;;;0.01;67.14;98836.83;2256414;78;20957;-60
2022/04/04 00:57:16;;;;;;;25.75;7.85;;;;;;;-0.05;67.33;98837.78;2237411;79;21530;-60
2022/04/04 01:00:19;;;;;;;27.60;8.98;;;;;;;-0.02;67.25;98833.02;2237631;79;20992;-60
2022/04/04 01:03:21;;;;;;;27.22;9.13;;;;;;;-0.08;67.57;98831.84;2238683;79;21005;-59
2022/04/04 01:06:23;;;;;;;27.02;8.53;;;;;;;-0.03;67.90;98831.31;2239945;79;21036;-60
2022/04/04 01:09:24;;;;;;;31.93;9.30;;;;;;;-0.80;70.59;98830.84;2236288;79;21070;-60
2022/04/04 01:12:27;;;;;;;36.00;10.40;;;;;;;-0.04;68.21;98824.47;2242082;79;21127;-60
2022/04/04 01:15:32;;;;;;;33.45;10.28;;;;;;;0.13;67.48;98821.14;2238495;79;21055;-60
2022/04/04 01:18:32;;;;;;;32.60;10.38;;;;;;;0.02;67.71;98819.20;2210873;79;21001;-60
2022/04/04 01:21:33;;;;;;;37.15;12.00;;;;;;;0.04;67.77;98815.30;2238651;79;21008;-60
2022/04/04 01:24:37;;;;;;;31.50;10.80;;;;;;;0.05;67.65;98815.27;2236007;79;21081;-60
2022/04/04 01:27:39;;;;;;;35.08;10.90;;;;;;;0.15;67.11;98811.63;2242323;79;21055;-60
2022/04/04 01:30:41;;;;;;;;;;;;;;;0.11;67.58;98811.72;2244081;78;21550;-60
2022/04/04 01:33:43;;;;;;;34.45;10.05;;;;;;;0.07;67.69;98812.66;2239842;79;20087;-60
2022/04/04 01:36:44;;;;;;;29.52;10.10;;;;;;;0.08;67.72;98804.05;2241297;78;21051;-60
2022/04/04 01:39:46;;;;;;;32.13;11.08;;;;;;;0.11;67.61;98800.95;2245897;78;20983;-60
2022/04/04 01:42:47;;;;;;;34.08;11.25;;;;;;;0.08;67.59;98795.02;2241099;79;21527;-60
2022/04/04 01:48:52;;;;;;;35.73;12.07;;;;;;;0.15;67.40;98789.70;2215015;79;20973;-60
2022/04/04 01:51:53;;;;;;;37.48;12.13;;;;;;;0.11;67.71;98785.92;2243241;79;21546;-59
2022/04/04 01:54:55;;;;;;;35.30;12.70;;;;;;;0.10;67.54;98777.77;2242685;78;21027;-60
2022/04/04 01:57:56;;;;;;;35.58;12.28;;;;;;;0.11;67.68;98781.61;2273249;78;20979;-60
2022/04/04 02:01:01;;;;;;;37.50;12.50;;;;;;;0.12;67.82;98776.87;2237176;79;21016;-60
2022/04/04 02:04:02;;;;;;;37.33;13.00;;;;;;;0.18;67.62;98781.52;2204537;79;21443;-60
2022/04/04 02:07:05;;;;;;;33.63;12.28;;;;;;;0.22;67.89;98772.39;2236393;79;21530;-60
2022/04/04 02:10:07;;;;;;;34.95;12.78;;;;;;;0.18;68.01;98769.45;2207892;79;21456;-60
2022/04/04 02:13:09;;;;;;;37.35;12.63;;;;;;;0.18;68.43;98770.74;2239124;79;21063;-60
2022/04/04 02:16:11;;;;;;;35.05;13.05;;;;;;;0.17;68.45;98765.16;2230963;79;21015;-60
2022/04/04 02:19:12;;;;;;;38.10;14.03;;;;;;;0.14;68.39;98761.36;2236318;79;21027;-60
2022/04/04 02:22:14;;;;;;;36.25;12.75;;;;;;;0.13;68.52;98759.23;2243771;79;21012;-59
2022/04/04 02:25:16;;;;;;;36.17;11.90;;;;;;;0.13;68.36;98759.23;2235628;79;21023;-60
2022/04/04 02:28:17;;;;;;;33.25;12.43;;;;;;;0.19;68.77;98764.71;2239709;79;21498;-60
2022/04/04 02:31:18;;;;;;;33.63;12.43;;;;;;;0.14;68.67;98754.91;2237956;79;20987;-60
2022/04/04 02:34:20;;;;;;;31.40;11.90;;;;;;;0.12;68.83;98751.53;2236258;79;21499;-60
2022/04/04 02:37:21;;;;;;;32.10;11.78;;;;;;;0.09;69.15;98756.75;2233218;79;20992;-60
2022/04/04 02:40:23;;;;;;;34.38;12.20;;;;;;;0.06;69.30;98751.63;2231960;79;21036;-60
2022/04/04 02:43:24;;;;;;;32.13;11.88;;;;;;;0.08;69.35;98751.17;2237666;79;21008;-59
2022/04/04 02:46:26;;;;;;;34.65;11.43;;;;;;;0.09;69.09;98752.43;2243345;79;21030;-60
2022/04/04 02:49:29;;;;;;;32.08;12.20;;;;;;;0.13;69.50;98749.33;2236147;79;21038;-60
2022/04/04 02:52:30;;;;;;;32.00;11.38;;;;;;;0.07;69.77;98741.73;2236239;79;20992;-60
2022/04/04 02:58:35;;;;;;;32.33;11.53;;;;;;;0.12;69.22;98748.95;2220564;79;21036;-60
2022/04/04 03:01:37;;;;;;;32.20;11.97;;;;;;;0.25;68.38;98738.78;2230324;79;21015;-60
2022/04/04 03:04:40;;;;;;;32.03;11.20;;;;;;;0.30;68.34;98745.13;2234972;79;20991;-60
2022/04/04 03:07:42;;;;;;;28.02;11.53;;;;;;;0.29;68.70;98746.88;2234927;79;20991;-60
2022/04/04 03:10:44;;;;;;;32.73;11.25;;;;;;;0.26;68.41;98743.06;2237193;79;21075;-60
2022/04/04 03:13:46;;;;;;;32.67;11.40;;;;;;;0.27;68.39;98743.45;2227850;79;20984;-60
2022/04/04 03:16:48;;;;;;;31.60;10.93;;;;;;;0.26;68.49;98752.09;2229132;79;21526;-60
2022/04/04 03:19:49;;;;;;;31.45;10.18;;;;;;;0.32;68.15;98746.80;2246303;79;20984;-60
2022/04/04 03:22:51;;;;;;;30.52;10.55;;;;;;;0.22;68.36;98738.84;2237037;79;21000;-60
2022/04/04 03:25:52;;;;;;;33.37;11.20;;;;;;;0.17;68.68;98741.95;2242415;79;21051;-60
2022/04/04 03:28:54;;;;;;;35.23;11.25;;;;;;;0.18;68.37;98741.53;2224344;79;21020;-60
2022/04/04 03:31:55;;;;;;;31.25;11.65;;;;;;;0.12;68.38;98747.20;2240831;79;21027;-60
2022/04/04 03:34:57;;;;;;;33.08;11.28;;;;;;;0.04;68.41;98745.66;2241381;79;21000;-60
2022/04/04 03:37:59;;;;;;;32.67;11.38;;;;;;;-0.03;68.02;98739.34;2232895;79;21059;-60
2022/04/04 03:41:01;;;;;;;28.90;10.40;;;;;;;-0.07;68.00;98739.41;2237868;79;21039;-60
2022/04/04 03:44:02;;;;;;;28.65;9.73;;;;;;;-0.07;67.66;98737.70;2231336;79;21067;-60
2022/04/04 03:47:06;;;;;;;30.77;9.85;;;;;;;-0.10;67.45;98732.61;2244876;79;21007;-59
2022/04/04 03:50:07;;;;;;;34.35;10.78;;;;;;;-0.15;67.54;98735.70;2216056;79;20977;-60
2022/04/04 03:53:08;;;;;;;28.07;9.95;;;;;;;-0.17;67.50;98729.73;2243407;79;20988;-60
2022/04/04 03:56:11;;;;;;;32.70;12.10;;;;;;;-0.29;67.72;98735.95;2239763;79;20985;-59
2022/04/04 03:59:12;;;;;;;31.15;11.50;;;;;;;-0.29;67.72;98724.34;2232101;79;21075;-60
2022/04/04 04:02:14;;;;;;;35.68;11.28;;;;;;;-0.49;67.66;98726.44;2239787;79;21061;-60
2022/04/04 04:05:16;;;;;;;31.87;11.97;;;;;;;-0.68;68.96;98731.91;2235152;79;20996;-60
2022/04/04 04:08:17;;;;;;;30.93;10.27;;;;;;;-0.33;67.55;98731.75;2239924;79;21000;-60
2022/04/04 04:11:19;;;;;;;36.80;11.43;;;;;;;-0.23;66.99;98729.41;2232337;79;20994;-60
2022/04/04 04:14:21;;;;;;;34.93;11.43;;;;;;;-0.07;66.30;98732.96;2240620;79;21039;-60
2022/04/04 04:17:24;;;;;;;36.77;12.95;;;;;;;-1.50;72.45;98726.72;2247501;79;20988;-61
2022/04/04 04:20:29;;;;;;;36.50;14.90;;;;;;;-1.54;72.96;98734.06;2219344;79;20994;-59
2022/04/04 04:23:29;;;;;;;39.75;17.00;;;;;;;-1.55;73.02;98727.23;2205632;79;21052;-60
2022/04/04 04:26:31;;;;;;;49.70;21.65;;;;;;;-1.51;73.17;98725.45;2236012;79;21497;-60
2022/04/04 04:29:32;;;;;;;51.00;23.27;;;;;;;-1.32;73.08;98720.89;2240529;79;21594;-60
2022/04/04 04:32:34;;;;;;;45.12;17.00;;;;;;;-1.12;72.60;98722.75;2237551;79;20974;-60
2022/04/04 04:35:35;;;;;;;44.60;19.17;;;;;;;-1.05;72.46;98721.78;2236608;79;21482;-60
2022/04/04 04:38:36;;;;;;;42.78;15.93;;;;;;;-0.93;72.22;98712.17;2238512;79;20981;-60
2022/04/04 04:41:38;;;;;;;40.70;16.05;;;;;;;-0.94;72.51;98708.72;2240816;79;21078;-60
2022/04/04 04:44:39;;;;;;;36.23;14.15;;;;;;;-0.95;72.25;98706.17;2235035;79;20996;-60
2022/04/04 04:47:41;;;;;;;33.67;13.65;;;;;;;-0.92;72.46;98715.13;2242426;79;21062;-60
2022/04/04 04:50:42;;;;;;;35.48;13.28;;;;;;;-0.78;72.14;98707.19;2244664;79;21055;-61
2022/04/04 04:53:43;;;;;;;35.30;13.60;;;;;;;-0.68;72.02;98720.77;2239080;79;21005;-60
2022/04/04 04:56:45;;;;;;;37.85;14.58;;;;;;;-0.58;71.65;98714.13;2233548;79;21744;-60
2022/04/04 04:59:46;;;;;;;38.70;14.55;;;;;;;-0.35;71.33;98705.97;2236431;79;20980;-60
2022/04/04 05:03:24;;;;;;;37.28;13.93;;;;;;;-0.08;70.89;98710.66;2233681;79;21503;-60
2022/04/04 05:05:51;;;;;;;38.08;15.23;;;;;;;0.01;70.36;98700.59;2212558;79;21040;-59
2022/04/04 05:08:55;;;;;;;37.25;14.85;;;;;;;0.11;70.37;98701.65;2245811;79;21015;-60
2022/04/04 05:11:56;;;;;;;41.13;15.95;;;;;;;0.17;69.86;98703.25;2216557;79;21522;-59
2022/04/04 05:14:58;;;;;;;35.52;13.65;;;;;;;0.22;70.19;98709.18;2236019;79;20981;-60
2022/04/04 05:17:59;;;;;;;35.78;13.25;;;;;;;0.21;69.75;98703.60;2238335;79;20968;-59
2022/04/04 05:21:01;;;;;;;34.75;13.20;;;;;;;0.12;70.05;98714.13;2233018;79;21023;-60
2022/04/04 05:24:02;;;;;;;39.20;13.30;;;;;;;0.14;70.31;98714.93;2243912;79;21001;-60
2022/04/04 05:27:04;;;;;;;40.23;14.90;;;;;;;0.18;70.35;98710.12;2247339;79;21040;-60
2022/04/04 05:30:05;;;;;;;39.50;14.00;;;;;;;0.11;71.04;98717.12;2239611;79;21071;-60
2022/04/04 05:33:09;;;;;;;37.08;14.40;;;;;;;0.09;70.72;98714.19;2248349;79;21533;-60
2022/04/04 05:36:10;;;;;;;37.38;14.18;;;;;;;0.06;71.01;98709.94;2213853;79;21024;-59
2022/04/04 05:39:11;;;;;;;37.28;14.68;;;;;;;0.09;71.39;98720.64;2237076;79;21123;-59
2022/04/04 05:42:13;;;;;;;34.48;14.05;;;;;;;0.15;71.57;98719.22;2234562;79;21557;-60
2022/04/04 05:45:14;;;;;;;32.38;13.08;;;;;;;0.19;71.77;98727.73;2233478;79;20961;-60
2022/04/04 05:48:16;;;;;;;34.00;14.15;;;;;;;0.33;71.71;98724.00;2278598;77;21021;-60
2022/04/04 05:51:17;;;;;;;35.90;14.30;;;;;;;0.43;71.19;98708.30;2277128;77;20981;-60
2022/04/04 05:54:19;;;;;;;39.05;15.03;;;;;;;0.42;71.19;98716.95;2288069;77;20988;-60
2022/04/04 05:57:20;;;;;;;34.63;13.95;;;;;;;0.47;71.33;98712.52;2282733;77;20980;-60
2022/04/04 06:00:22;;;;;;;39.20;16.05;;;;;;;0.52;71.29;98710.70;2283195;77;20961;-59
2022/04/04 06:03:23;;;;;;;37.55;14.98;;;;;;;0.67;70.98;98721.12;2283087;77;22792;-59
2022/04/04 06:06:25;;;;;;;39.13;14.98;;;;;;;0.80;70.90;98719.11;2286249;77;21036;-59
2022/04/04 06:09:26;;;;;;;36.83;15.72;;;;;;;0.92;70.41;98723.13;2284634;77;21480;-60
2022/04/04 06:12:28;;;;;;;37.65;16.25;;;;;;;0.97;70.44;98719.55;2278918;77;20985;-60
2022/04/04 06:15:30;;;;;;;31.20;13.18;;;;;;;1.07;70.35;98709.86;2286051;77;21649;-60
2022/04/04 06:18:34;;;;;;;40.03;15.13;;;;;;;1.07;69.88;98715.02;2284478;77;21012;-60
2022/04/04 06:21:36;;;;;;;36.48;14.85;;;;;;;1.01;70.39;98713.44;2265574;77;21274;-61
2022/04/04 06:24:38;;;;;;;36.80;14.60;;;;;;;1.08;70.41;98711.56;2282397;77;20995;-59
2022/04/04 06:27:40;;;;;;;;;;;;;;;1.23;70.22;98706.91;2285273;77;21024;-60
2022/04/04 06:30:41;;;;;;;34.33;14.45;;;;;;;1.36;70.02;98709.12;2285008;77;20115;-60
2022/04/04 06:33:43;;;;;;;40.37;15.53;;;;;;;1.52;69.53;98707.44;2282375;77;21613;-60
2022/04/04 06:36:44;;;;;;;37.90;16.67;;;;;;;1.64;68.89;98712.30;2279655;77;21024;-60
2022/04/04 06:39:46;;;;;;;42.60;17.05;;;;;;;1.75;68.79;98700.81;2283106;77;21038;-60
2022/04/04 06:42:48;;;;;;;41.40;17.75;;;;;;;1.90;68.54;98711.59;2283818;77;20981;-60
2022/04/04 06:45:50;;;;;;;;;;;;;;;1.97;68.08;98710.98;2287070;77;21001;-60
2022/04/04 06:48:51;;;;;;;41.83;18.02;;;;;;;2.00;67.62;98710.89;2281488;77;20091;-60
2022/04/04 06:51:53;;;;;;;40.95;16.70;;;;;;;2.10;67.15;98708.03;2285248;77;20962;-60
2022/04/04 06:54:56;;;;;;;41.27;17.13;;;;;;;2.12;67.14;98714.87;2284221;77;21001;-60
2022/04/04 06:57:58;;;;;;;32.60;13.35;;;;;;;2.20;67.85;98727.61;2284839;77;21563;-60
2022/04/04 07:00:59;;;;;;;44.88;18.55;;;;;;;2.24;68.36;98724.88;2273559;77;20972;-60
2022/04/04 07:04:02;;;;;;;32.38;14.70;;;;;;;2.44;68.16;98722.14;2285394;77;21487;-61
2022/04/04 07:07:04;;;;;;;34.73;13.93;;;;;;;2.36;68.68;98717.66;2286785;77;20997;-60
2022/04/04 07:10:06;;;;;;;50.80;23.32;;;;;;;2.39;68.32;98717.11;2284278;77;21051;-60
2022/04/04 07:13:07;;;;;;;34.20;14.53;;;;;;;2.36;68.81;98718.95;2287177;77;21019;-61
2022/04/04 07:16:09;;;;;;;36.05;15.55;;;;;;;2.35;68.80;98712.07;2284710;77;21027;-60
2022/04/04 07:19:15;;;;;;;57.13;24.75;;;;;;;2.26;69.63;98709.31;2271872;77;20933;-60
2022/04/04 07:22:14;;;;;;;39.42;17.85;;;;;;;2.60;69.86;98706.98;2263119;77;21060;-60
2022/04/04 07:25:16;;;;;;;34.00;14.90;;;;;;;2.92;69.50;98704.70;2287078;77;20989;-60
2022/04/04 07:28:20;;;;;;;32.27;14.27;;;;;;;3.20;67.70;98710.28;2288971;77;20993;-59
2022/04/04 07:31:21;;;;;;;32.30;14.10;;;;;;;3.24;67.40;98713.17;2261262;77;21551;-60
2022/04/04 07:34:22;;;;;;;30.82;14.43;;;;;;;3.24;67.51;98709.75;2283100;77;21065;-60
2022/04/04 07:37:24;;;;;;;29.87;12.73;;;;;;;3.01;69.11;98702.27;2244020;78;21601;-60
2022/04/04 07:40:27;;;;;;;27.67;13.28;;;;;;;2.57;70.61;98722.20;2241352;79;21008;-60
2022/04/04 07:43:29;;;;;;;30.95;13.05;;;;;;;2.27;72.03;98703.25;2244819;78;21043;-60
2022/04/04 07:46:31;;;;;;;29.73;12.50;;;;;;;2.11;72.81;98713.16;2244136;78;20992;-60
2022/04/04 07:49:33;;;;;;;29.42;12.40;;;;;;;2.10;72.38;98708.90;2260958;78;20980;-60
2022/04/04 07:52:34;;;;;;;31.93;13.28;;;;;;;2.10;72.39;98713.20;2234033;78;21099;-60
2022/04/04 07:55:36;;;;;;;26.52;11.80;;;;;;;2.15;73.01;98717.82;2247398;78;21040;-60
2022/04/04 07:58:38;;;;;;;29.72;13.65;;;;;;;2.48;72.97;98705.63;2233477;79;21484;-60
2022/04/04 08:01:39;;;;;;;28.25;11.48;;;;;;;2.51;72.60;98718.48;2235932;79;21035;-60
2022/04/04 08:04:41;;;;;;;30.92;14.40;;;;;;;2.75;72.00;98716.89;2243882;79;21179;-60
2022/04/04 08:07:47;;;;;;;30.17;14.03;;;;;;;2.86;71.97;98722.17;2235255;79;21103;-60
2022/04/04 08:10:45;;;;;;;29.45;14.15;;;;;;;2.91;72.47;98719.84;2202834;79;21126;-60
2022/04/04 08:13:47;;;;;;;30.85;15.03;;;;;;;3.12;71.38;98712.30;2220668;79;21031;-60
2022/04/04 08:16:48;;;;;;;32.63;15.40;;;;;;;3.07;71.41;98708.53;2226379;79;21068;-60
2022/04/04 08:19:50;;;;;;;29.43;14.60;;;;;;;2.94;71.78;98708.11;2221812;79;21072;-60
2022/04/04 08:22:52;;;;;;;34.45;17.10;;;;;;;3.08;71.42;98697.28;2236903;79;21514;-60
2022/04/04 08:25:54;;;;;;;35.47;18.80;;;;;;;3.30;71.57;98705.64;2233960;79;21052;-60
2022/04/04 08:28:56;;;;;;;33.88;17.48;;;;;;;3.60;69.80;98695.14;2237764;79;21996;-60
2022/04/04 08:31:57;;;;;;;35.03;17.25;;;;;;;4.15;68.10;98702.70;2219517;79;21060;-61
2022/04/04 08:34:59;;;;;;;34.33;16.90;;;;;;;4.54;66.74;98685.67;2219958;79;21590;-60
2022/04/04 08:38:01;;;;;;;36.37;18.17;;;;;;;4.72;65.22;98684.96;2237370;79;21315;-60
2022/04/04 08:41:03;;;;;;;35.15;18.50;;;;;;;5.05;65.73;98684.52;2234721;79;21583;-60
2022/04/04 08:44:05;;;;;;;34.67;17.92;;;;;;;5.80;64.50;98689.61;2229587;79;21186;-60
2022/04/04 08:47:06;;;;;;;34.35;18.60;;;;;;;6.44;61.51;98683.77;2227740;79;21605;-60
2022/04/04 08:50:09;;;;;;;34.98;18.10;;;;;;;6.58;61.84;98683.97;2223706;78;20983;-60
2022/04/04 08:53:11;;;;;;;32.98;16.87;;;;;;;6.34;59.23;98689.02;2221353;79;21003;-61
2022/04/04 08:56:13;;;;;;;32.40;17.00;;;;;;;6.28;60.13;98682.77;2224315;79;21048;-61
2022/04/04 08:59:14;;;;;;;33.17;18.13;;;;;;;6.20;60.00;98681.35;2218416;79;21632;-60
2022/04/04 09:02:16;;;;;;;34.33;17.13;;;;;;;6.14;60.05;98682.11;2212582;79;21158;-61
2022/04/04 09:05:18;;;;;;;34.85;17.25;;;;;;;6.02;61.37;98673.93;2236046;78;21087;-61
2022/04/04 09:08:20;;;;;;;33.42;17.10;;;;;;;5.96;60.98;98671.58;2228604;79;21058;-60
2022/04/04 09:11:21;;;;;;;35.35;18.67;;;;;;;6.02;60.89;98666.55;2220808;79;21063;-61
2022/04/04 09:14:24;;;;;;;33.30;16.02;;;;;;;6.17;60.24;98663.27;2224522;79;21040;-60
2022/04/04 09:17:27;;;;;;;32.63;16.37;;;;;;;6.75;59.14;98647.13;2230854;79;21115;-60
2022/04/04 09:20:28;;;;;;;31.93;15.68;;;;;;;6.68;58.04;98642.68;2240373;79;21705;-60
2022/04/04 09:23:30;;;;;;;33.13;16.25;;;;;;;7.39;57.18;98643.56;2233144;79;21044;-60
2022/04/04 09:26:31;;;;;;;35.05;17.90;;;;;;;8.00;55.97;98636.06;2222790;79;21071;-61
2022/04/04 09:29:35;;;;;;;31.67;16.33;;;;;;;8.38;54.94;98622.23;2228018;78;21079;-61
2022/04/04 09:32:36;;;;;;;30.88;16.57;;;;;;;8.79;54.26;98616.94;2201321;79;20965;-61
2022/04/04 09:35:38;;;;;;;33.05;16.27;;;;;;;8.58;53.97;98617.23;2222496;79;21562;-61
2022/04/04 09:38:39;;;;;;;29.80;15.48;;;;;;;9.00;52.62;98613.56;2237169;79;21081;-61
2022/04/04 09:41:41;;;;;;;31.45;15.70;;;;;;;9.08;51.75;98605.25;2238942;79;21064;-61
2022/04/04 09:44:42;;;;;;;30.67;15.37;;;;;;;8.66;52.16;98604.58;2248921;78;21362;-61
2022/04/04 09:47:43;;;;;;;28.75;13.98;;;;;;;8.27;51.92;98590.61;2248723;79;21052;-61
2022/04/04 09:50:45;;;;;;;34.83;14.85;;;;;;;7.85;51.56;98607.70;2234401;79;20954;-61
2022/04/04 09:53:46;;;;;;;33.63;18.37;;;;;;;7.83;53.79;98593.87;2247460;79;21031;-61
2022/04/04 09:56:50;;;;;;;30.93;14.43;;;;;;;8.54;53.73;98581.73;2238883;79;21483;-60
2022/04/04 09:59:53;;;;;;;29.82;13.70;;;;;;;8.97;51.46;98589.72;2238879;78;21345;-60
2022/04/04 10:02:54;;;;;;;33.63;16.70;;;;;;;9.21;51.74;98582.69;2237183;79;21525;-61
2022/04/04 10:05:56;;;;;;;30.07;15.43;;;;;;;9.47;49.94;98578.50;2241061;79;20961;-61
2022/04/04 10:08:58;;;;;;;28.35;13.50;;;;;;;9.76;49.59;98569.81;2236101;79;21004;-61
2022/04/04 10:11:59;;;;;;;29.17;13.37;;;;;;;9.82;49.59;98566.81;2237947;79;20988;-61
2022/04/04 10:15:01;;;;;;;26.07;12.20;;;;;;;9.77;49.14;98564.48;2230833;78;21616;-61
2022/04/04 10:18:02;;;;;;;34.85;16.52;;;;;;;9.50;48.11;98566.53;2243518;79;20965;-61
2022/04/04 10:21:04;;;;;;;29.23;13.17;;;;;;;8.87;51.09;98555.05;2242629;79;21012;-61
2022/04/04 10:24:06;;;;;;;28.00;13.27;;;;;;;9.37;48.73;98538.12;2238743;79;21027;-61
2022/04/04 10:27:12;;;;;;;26.60;12.37;;;;;;;9.71;47.88;98538.20;2238828;79;21016;-62
2022/04/04 10:30:11;;;;;;;27.30;11.93;;;;;;;9.91;47.44;98524.30;2208003;79;21036;-61
2022/04/04 10:33:12;;;;;;;27.30;12.28;;;;;;;9.41;48.78;98534.83;2246710;78;21012;-61
2022/04/04 10:36:16;;;;;;;27.20;12.00;;;;;;;9.26;47.76;98528.28;2228176;79;20968;-61
2022/04/04 10:39:17;;;;;;;32.03;15.30;;;;;;;8.88;49.57;98520.95;2232764;79;21005;-61
2022/04/04 10:42:18;;;;;;;36.00;17.25;;;;;;;9.30;48.71;98515.39;2241084;79;21024;-61
2022/04/04 10:45:21;;;;;;;25.47;10.80;;;;;;;9.77;48.18;98507.30;2238319;79;21555;-61
2022/04/04 10:48:23;;;;;;;26.65;11.10;;;;;;;9.65;46.67;98494.52;2237859;79;20992;-61
2022/04/04 10:51:24;;;;;;;24.32;10.30;;;;;;;9.48;46.55;98493.80;2241137;79;20984;-61
2022/04/04 10:54:26;;;;;;;25.17;11.17;;;;;;;9.50;46.40;98489.78;2248123;78;21019;-61
2022/04/04 10:57:27;;;;;;;25.17;10.53;;;;;;;9.18;46.46;98488.67;2239557;79;21044;-61
2022/04/04 11:00:29;;;;;;;28.10;11.03;;;;;;;9.03;46.62;98494.82;2242208;79;21015;-62
2022/04/04 11:03:30;;;;;;;30.40;11.88;;;;;;;9.17;45.80;98497.45;2230513;79;20995;-62
2022/04/04 11:09:37;;;;;;;24.75;10.23;;;;;;;9.60;44.70;98476.96;2201167;79;21007;-62
2022/04/04 11:12:38;;;;;;;27.20;10.90;;;;;;;9.85;44.68;98459.21;2206754;79;21067;-61
2022/04/04 11:15:41;;;;;;;26.97;11.60;;;;;;;9.92;43.52;98462.29;2232823;79;21015;-61
2022/04/04 11:18:43;;;;;;;34.13;14.35;;;;;;;10.51;44.69;98444.93;2239725;79;21083;-62
2022/04/04 11:21:46;;;;;;;26.57;11.20;;;;;;;11.19;43.94;98456.93;2240430;79;21527;-62
2022/04/04 11:24:47;;;;;;;26.23;11.08;;;;;;;11.00;42.72;98455.20;2241935;78;20989;-62
2022/04/04 11:27:49;;;;;;;24.70;10.23;;;;;;;10.67;42.61;98446.87;2235302;79;21559;-62
2022/04/04 11:30:50;;;;;;;23.60;9.33;;;;;;;10.85;41.77;98448.74;2245123;79;20962;-62
2022/04/04 11:33:54;;;;;;;22.70;9.60;;;;;;;11.07;41.82;98415.28;2275838;77;21074;-61
2022/04/04 11:36:55;;;;;;;25.82;10.55;;;;;;;11.08;42.31;98438.45;2281622;77;21547;-61
2022/04/04 11:40:03;;;;;;;23.97;10.63;;;;;;;11.50;41.39;98423.25;2287186;77;20976;-62
2022/04/04 11:43:00;;;;;;;23.47;8.75;;;;;;;11.81;41.17;98418.89;2252390;78;21027;-61
2022/04/04 11:46:02;;;;;;;28.15;10.95;;;;;;;11.37;39.55;98399.65;2280314;78;21086;-61
2022/04/04 11:49:05;;;;;;;23.47;8.88;;;;;;;11.19;41.23;98409.68;2279268;78;21063;-61
2022/04/04 11:52:07;;;;;;;28.95;11.20;;;;;;;10.55;39.83;98419.70;2282229;77;20985;-62
2022/04/04 11:55:10;;;;;;;21.82;8.25;;;;;;;10.58;41.92;98401.13;2278669;78;20965;-61
2022/04/04 11:58:12;;;;;;;21.77;7.55;;;;;;;11.08;40.92;98384.66;2280784;77;20989;-61
2022/04/04 12:01:13;;;;;;;20.65;7.35;;;;;;;11.42;38.39;98403.25;2281012;77;21265;-61
2022/04/04 12:04:15;;;;;;;23.43;8.10;;;;;;;10.98;38.99;98377.06;2286580;77;20949;-62
2022/04/04 12:07:17;;;;;;;21.45;7.25;;;;;;;10.90;40.54;98386.76;2280053;77;20999;-62
2022/04/04 12:10:18;;;;;;;22.23;7.87;;;;;;;11.04;39.50;98365.64;2242262;79;21068;-62
2022/04/04 12:13:21;;;;;;;21.10;7.47;;;;;;;11.07;39.96;98354.92;2243191;79;20973;-62
2022/04/04 12:16:23;;;;;;;22.87;7.80;;;;;;;10.60;40.18;98366.94;2243606;78;21079;-61
2022/04/04 12:19:25;;;;;;;21.82;8.33;;;;;;;10.27;40.15;98359.55;2271593;78;21069;-62
2022/04/04 12:25:30;;;;;;;22.00;7.40;;;;;;;9.04;42.22;98351.29;2215725;79;21012;-61
2022/04/04 12:28:32;;;;;;;19.60;6.60;;;;;;;8.58;43.62;98360.20;2237621;79;20992;-61
2022/04/04 12:31:34;;;;;;;21.70;6.75;;;;;;;8.30;43.50;98350.04;2282423;77;21035;-61
2022/04/04 12:34:36;;;;;;;18.32;6.05;;;;;;;7.83;42.98;98354.51;2284551;77;21051;-61
2022/04/04 12:37:38;;;;;;;18.52;6.75;;;;;;;7.73;44.36;98340.27;2285043;77;20973;-61
2022/04/04 12:40:39;;;;;;;19.07;5.65;;;;;;;7.59;44.70;98345.81;2282019;78;20973;-61
2022/04/04 12:43:41;;;;;;;23.57;6.77;;;;;;;7.53;43.85;98340.95;2285772;77;20945;-61
2022/04/04 12:46:42;;;;;;;17.52;5.65;;;;;;;7.78;45.11;98323.89;2282984;77;21084;-61
2022/04/04 12:49:44;;;;;;;18.65;5.47;;;;;;;8.00;43.74;98333.92;2283067;77;21653;-61
2022/04/04 12:52:46;;;;;;;21.35;6.53;;;;;;;8.08;44.38;98326.48;2288110;77;20981;-61
2022/04/04 12:55:47;;;;;;;19.70;6.20;;;;;;;8.22;42.85;98319.63;2285047;77;20996;-61
2022/04/04 12:58:49;;;;;;;21.07;6.10;;;;;;;8.80;41.34;98301.72;2288772;77;20949;-61
2022/04/04 13:01:50;;;;;;;18.48;6.35;;;;;;;9.08;43.03;98296.09;2286429;77;21487;-61
2022/04/04 13:04:51;;;;;;;23.30;7.80;;;;;;;9.68;41.74;98279.59;2284255;77;20985;-61
2022/04/04 13:07:53;;;;;;;20.95;6.60;;;;;;;10.42;40.54;98256.30;2284823;77;21008;-62
2022/04/04 13:10:54;;;;;;;24.30;7.37;;;;;;;11.03;38.66;98259.02;2287228;77;21047;-61
2022/04/04 13:13:56;;;;;;;21.52;6.97;;;;;;;11.06;37.45;98239.56;2285849;77;20992;-61
2022/04/04 13:17:00;;;;;;;24.75;9.85;;;;;;;10.12;39.47;98262.67;2286761;77;21546;-61
2022/04/04 13:20:01;;;;;;;20.92;7.10;;;;;;;10.15;40.28;98259.84;2258096;78;21530;-61
2022/04/04 13:23:03;;;;;;;22.95;7.20;;;;;;;10.81;39.56;98247.89;2283712;77;20950;-61
2022/04/04 13:26:04;;;;;;;19.10;6.62;;;;;;;10.99;38.79;98237.88;2282734;77;21629;-61
2022/04/04 13:32:09;;;;;;;21.15;7.10;;;;;;;10.73;38.44;98240.58;2259776;77;21004;-62
2022/04/04 13:35:11;;;;;;;18.65;5.85;;;;;;;10.95;38.21;98222.44;2284141;77;21048;-62
2022/04/04 13:38:13;;;;;;;21.30;7.33;;;;;;;11.05;37.06;98224.30;2285420;77;20992;-62
2022/04/04 13:41:16;;;;;;;16.93;5.60;;;;;;;11.02;37.70;98210.09;2284052;77;21012;-61
2022/04/04 13:44:17;;;;;;;;;;;;;;;10.63;36.58;98200.22;2287277;77;21027;-61
2022/04/04 13:47:19;;;;;;;17.10;5.60;;;;;;;10.68;38.30;98204.64;2282349;77;20150;-61
2022/04/04 13:50:20;;;;;;;19.92;6.17;;;;;;;10.20;37.35;98188.75;2283224;77;21036;-62
2022/04/04 13:53:22;;;;;;;22.87;7.28;;;;;;;10.16;37.88;98185.52;2286567;77;21004;-62
2022/04/04 13:56:24;;;;;;;17.57;5.85;;;;;;;10.22;37.83;98181.64;2285903;77;20978;-61
2022/04/04 13:59:25;;;;;;;21.00;7.53;;;;;;;10.36;37.86;98181.55;2241801;79;21510;-61
2022/04/04 14:02:27;;;;;;;20.43;7.27;;;;;;;10.54;39.52;98173.31;2234550;79;21031;-62
2022/04/04 14:05:29;;;;;;;21.97;7.58;;;;;;;10.83;38.66;98165.14;2235026;79;21538;-61
2022/04/04 14:08:31;;;;;;;19.37;6.47;;;;;;;11.00;38.08;98166.05;2252321;79;21031;-62
2022/04/04 14:11:35;;;;;;;21.12;7.17;;;;;;;10.83;37.24;98146.32;2236973;79;21202;-61
2022/04/04 14:14:36;;;;;;;23.62;8.50;;;;;;;10.88;38.20;98150.73;2241590;79;21013;-61
2022/04/04 14:17:38;;;;;;;19.73;6.53;;;;;;;11.03;38.49;98129.57;2245300;78;21020;-62
2022/04/04 14:20:40;;;;;;;21.62;6.95;;;;;;;10.61;38.36;98136.53;2243243;79;20989;-61
2022/04/04 14:23:43;;;;;;;22.52;7.83;;;;;;;10.17;39.27;98130.87;2240927;79;21029;-61